sensor_id;sensor_type;location;lat;lon;timestamp;pressure;altitude;pressure_sealevel;temperature;humidity
24762;BME280;12865;51.934;10.330;2022-07-29T00:01:17;99428.06;;;16.25;71.71
24762;BME280;12865;51.934;10.330;2022-07-29T00:04:03;99437.16;;;16.24;72.17
24762;BME280;12865;51.934;10.330;2022-07-29T00:06:48;99426.22;;;16.17;72.10
24762;BME280;12865;51.934;10.330;2022-07-29T00:09:34;99426.88;;;16.19;72.47
24762;BME280;12865;51.934;10.330;2022-07-29T00:12:22;99418.16;;;16.17;72.89
24762;BME280;12865;51.934;10.330;2022-07-29T00:15:08;99422.34;;;16.28;71.67
24762;BME280;12865;51.934;10.330;2022-07-29T00:17:54;99416.25;;;16.34;71.20
24762;BME280;12865;51.934;10.330;2022-07-29T00:20:39;99414.09;;;16.29;72.06
24762;BME280;12865;51.934;10.330;2022-07-29T00:23:25;99414.44;;;16.26;72.59
24762;BME280;12865;51.934;10.330;2022-07-29T00:26:11;99407.03;;;16.28;72.42
24762;BME280;12865;51.934;10.330;2022-07-29T00:28:58;99405.03;;;16.30;72.49
24762;BME280;12865;51.934;10.330;2022-07-29T00:31:44;99392.91;;;16.26;72.74
24762;BME280;12865;51.934;10.330;2022-07-29T00:34:30;99390.56;;;16.23;73.10
24762;BME280;12865;51.934;10.330;2022-07-29T00:37:34;99391.25;;;16.25;72.78
24762;BME280;12865;51.934;10.330;2022-07-29T00:40:20;99383.34;;;16.24;73.04
24762;BME280;12865;51.934;10.330;2022-07-29T00:43:06;99387.88;;;16.23;73.24
24762;BME280;12865;51.934;10.330;2022-07-29T00:45:51;99381.16;;;16.19;73.43
24762;BME280;12865;51.934;10.330;2022-07-29T00:48:37;99378.28;;;16.29;73.17
24762;BME280;12865;51.934;10.330;2022-07-29T00:51:25;99372.72;;;16.38;72.20
24762;BME280;12865;51.934;10.330;2022-07-29T00:54:12;99368.47;;;16.44;71.48
24762;BME280;12865;51.934;10.330;2022-07-29T00:56:58;99365.78;;;16.44;72.00
24762;BME280;12865;51.934;10.330;2022-07-29T00:59:44;99371.03;;;16.37;72.32
24762;BME280;12865;51.934;10.330;2022-07-29T01:02:30;99367.69;;;16.27;72.78
24762;BME280;12865;51.934;10.330;2022-07-29T01:05:18;99363.00;;;16.21;73.03
24762;BME280;12865;51.934;10.330;2022-07-29T01:08:04;99363.34;;;16.18;73.12
24762;BME280;12865;51.934;10.330;2022-07-29T01:10:50;99365.38;;;16.16;73.37
24762;BME280;12865;51.934;10.330;2022-07-29T01:13:37;99361.00;;;16.15;73.55
24762;BME280;12865;51.934;10.330;2022-07-29T01:16:29;99358.31;;;16.15;73.47
24762;BME280;12865;51.934;10.330;2022-07-29T01:26:09;99343.84;;;16.16;73.51
24762;BME280;12865;51.934;10.330;2022-07-29T01:29:35;99339.81;;;16.12;73.33
24762;BME280;12865;51.934;10.330;2022-07-29T01:32:26;99340.66;;;16.13;73.35
24762;BME280;12865;51.934;10.330;2022-07-29T01:35:39;99337.97;;;16.13;73.32
24762;BME280;12865;51.934;10.330;2022-07-29T01:38:27;99331.56;;;16.14;73.04
24762;BME280;12865;51.934;10.330;2022-07-29T01:41:16;99335.94;;;16.15;73.05
24762;BME280;12865;51.934;10.330;2022-07-29T01:44:11;99327.34;;;16.19;72.71
24762;BME280;12865;51.934;10.330;2022-07-29T01:47:01;99325.34;;;16.21;72.57
24762;BME280;12865;51.934;10.330;2022-07-29T01:49:52;99319.28;;;16.19;72.87
24762;BME280;12865;51.934;10.330;2022-07-29T01:52:47;99319.94;;;16.21;72.94
24762;BME280;12865;51.934;10.330;2022-07-29T01:55:43;99325.00;;;16.24;72.29
24762;BME280;12865;51.934;10.330;2022-07-29T01:58:31;99317.25;;;16.21;72.78
24762;BME280;12865;51.934;10.330;2022-07-29T02:01:18;99311.41;;;16.18;72.72
24762;BME280;12865;51.934;10.330;2022-07-29T02:04:07;99318.94;;;16.22;72.65
24762;BME280;12865;51.934;10.330;2022-07-29T02:07:00;99310.53;;;16.25;72.42
24762;BME280;12865;51.934;10.330;2022-07-29T02:09:47;99306.00;;;16.26;72.18
24762;BME280;12865;51.934;10.330;2022-07-29T02:12:34;99306.16;;;16.24;72.08
24762;BME280;12865;51.934;10.330;2022-07-29T02:15:23;99308.50;;;16.27;71.75
24762;BME280;12865;51.934;10.330;2022-07-29T02:18:14;99307.66;;;16.27;71.74
24762;BME280;12865;51.934;10.330;2022-07-29T02:21:01;99306.81;;;16.26;71.48
24762;BME280;12865;51.934;10.330;2022-07-29T02:23:48;99306.81;;;16.26;71.83
24762;BME280;12865;51.934;10.330;2022-07-29T02:26:35;99303.78;;;16.29;71.41
24762;BME280;12865;51.934;10.330;2022-07-29T02:29:23;99311.16;;;16.35;71.23
24762;BME280;12865;51.934;10.330;2022-07-29T02:32:10;99302.41;;;16.33;71.44
24762;BME280;12865;51.934;10.330;2022-07-29T02:34:59;99302.09;;;16.28;71.65
24762;BME280;12865;51.934;10.330;2022-07-29T02:37:46;99305.47;;;16.30;71.40
24762;BME280;12865;51.934;10.330;2022-07-29T02:40:56;99305.47;;;16.30;71.72
24762;BME280;12865;51.934;10.330;2022-07-29T02:43:44;99299.59;;;16.27;71.74
24762;BME280;12865;51.934;10.330;2022-07-29T02:46:34;99301.44;;;16.26;72.05
24762;BME280;12865;51.934;10.330;2022-07-29T02:52:08;99307.47;;;16.28;72.01
24762;BME280;12865;51.934;10.330;2022-07-29T02:55:18;99299.09;;;16.23;72.55
24762;BME280;12865;51.934;10.330;2022-07-29T02:58:15;99296.41;;;16.23;72.69
24762;BME280;12865;51.934;10.330;2022-07-29T03:01:11;99294.19;;;16.27;72.53
24762;BME280;12865;51.934;10.330;2022-07-29T03:04:00;99287.97;;;16.26;72.62
24762;BME280;12865;51.934;10.330;2022-07-29T03:06:48;99290.03;;;16.24;73.04
24762;BME280;12865;51.934;10.330;2022-07-29T03:09:35;99279.13;;;16.18;72.98
24762;BME280;12865;51.934;10.330;2022-07-29T03:12:22;99275.75;;;16.16;72.97
24762;BME280;12865;51.934;10.330;2022-07-29T03:15:09;99277.78;;;16.14;72.96
24762;BME280;12865;51.934;10.330;2022-07-29T03:17:55;99282.47;;;16.20;72.77
24762;BME280;12865;51.934;10.330;2022-07-29T03:20:41;99281.97;;;16.16;73.00
24762;BME280;12865;51.934;10.330;2022-07-29T03:23:27;99280.47;;;16.14;73.06
24762;BME280;12865;51.934;10.330;2022-07-29T03:26:13;99280.59;;;16.20;72.24
24762;BME280;12865;51.934;10.330;2022-07-29T03:28:59;99278.72;;;16.29;69.69
24762;BME280;12865;51.934;10.330;2022-07-29T03:31:45;99271.50;;;16.29;70.48
24762;BME280;12865;51.934;10.330;2022-07-29T03:34:31;99274.19;;;16.29;70.98
24762;BME280;12865;51.934;10.330;2022-07-29T03:37:16;99278.72;;;16.29;71.49
24762;BME280;12865;51.934;10.330;2022-07-29T03:40:05;99277.06;;;16.28;71.92
24762;BME280;12865;51.934;10.330;2022-07-29T03:42:53;99280.59;;;16.28;71.30
24762;BME280;12865;51.934;10.330;2022-07-29T03:45:42;99273.84;;;16.32;70.65
24762;BME280;12865;51.934;10.330;2022-07-29T03:48:32;99276.19;;;16.35;70.60
24762;BME280;12865;51.934;10.330;2022-07-29T03:51:18;99275.69;;;16.32;71.30
24762;BME280;12865;51.934;10.330;2022-07-29T03:54:04;99271.16;;;16.32;71.12
24762;BME280;12865;51.934;10.330;2022-07-29T03:56:52;99268.72;;;16.54;68.78
24762;BME280;12865;51.934;10.330;2022-07-29T03:59:39;99262.66;;;16.52;69.49
24762;BME280;12865;51.934;10.330;2022-07-29T04:02:25;99262.28;;;16.55;68.81
24762;BME280;12865;51.934;10.330;2022-07-29T04:05:12;99264.63;;;16.58;68.53
24762;BME280;12865;51.934;10.330;2022-07-29T04:07:58;99267.50;;;16.56;68.99
24762;BME280;12865;51.934;10.330;2022-07-29T04:10:44;99266.47;;;16.57;68.82
24762;BME280;12865;51.934;10.330;2022-07-29T04:13:30;99266.00;;;16.54;69.28
24762;BME280;12865;51.934;10.330;2022-07-29T04:16:15;99268.91;;;16.44;69.88
24762;BME280;12865;51.934;10.330;2022-07-29T04:19:01;99269.63;;;16.38;70.72
24762;BME280;12865;51.934;10.330;2022-07-29T04:21:47;99266.25;;;16.36;70.90
24762;BME280;12865;51.934;10.330;2022-07-29T04:24:34;99264.06;;;16.39;70.40
24762;BME280;12865;51.934;10.330;2022-07-29T04:27:19;99262.53;;;16.45;70.27
24762;BME280;12865;51.934;10.330;2022-07-29T04:30:05;99272.56;;;16.51;70.01
24762;BME280;12865;51.934;10.330;2022-07-29T04:32:51;99274.72;;;16.56;70.26
24762;BME280;12865;51.934;10.330;2022-07-29T04:35:37;99265.97;;;16.62;69.53
24762;BME280;12865;51.934;10.330;2022-07-29T04:38:23;99274.13;;;16.76;67.93
24762;BME280;12865;51.934;10.330;2022-07-29T04:41:09;99266.69;;;16.86;66.77
24762;BME280;12865;51.934;10.330;2022-07-29T04:43:55;99270.03;;;16.88;66.66
24762;BME280;12865;51.934;10.330;2022-07-29T04:46:40;99269.25;;;17.03;65.31
24762;BME280;12865;51.934;10.330;2022-07-29T04:49:26;99278.88;;;16.97;65.19
24762;BME280;12865;51.934;10.330;2022-07-29T04:52:12;99275.28;;;17.05;65.55
24762;BME280;12865;51.934;10.330;2022-07-29T04:54:57;99262.84;;;17.04;65.64
24762;BME280;12865;51.934;10.330;2022-07-29T04:57:43;99260.63;;;17.07;65.50
24762;BME280;12865;51.934;10.330;2022-07-29T05:00:29;99264.84;;;17.10;65.71
24762;BME280;12865;51.934;10.330;2022-07-29T05:03:15;99269.66;;;17.14;66.18
24762;BME280;12865;51.934;10.330;2022-07-29T05:06:00;99259.72;;;17.15;66.11
24762;BME280;12865;51.934;10.330;2022-07-29T05:08:46;99279.72;;;17.20;66.15
24762;BME280;12865;51.934;10.330;2022-07-29T05:11:32;99278.66;;;17.30;65.87
24762;BME280;12865;51.934;10.330;2022-07-29T05:14:17;99279.59;;;17.37;65.54
24762;BME280;12865;51.934;10.330;2022-07-29T05:17:03;99287.97;;;17.42;64.68
24762;BME280;12865;51.934;10.330;2022-07-29T05:19:49;99285.13;;;17.58;62.85
24762;BME280;12865;51.934;10.330;2022-07-29T05:22:36;99284.34;;;17.72;61.76
24762;BME280;12865;51.934;10.330;2022-07-29T05:25:22;99277.03;;;17.58;62.87
24762;BME280;12865;51.934;10.330;2022-07-29T05:28:07;99275.59;;;17.70;61.77
24762;BME280;12865;51.934;10.330;2022-07-29T05:30:53;99275.91;;;17.90;59.39
24762;BME280;12865;51.934;10.330;2022-07-29T05:33:39;99270.50;;;17.90;60.37
24762;BME280;12865;51.934;10.330;2022-07-29T05:36:25;99271.50;;;17.74;61.12
24762;BME280;12865;51.934;10.330;2022-07-29T05:39:10;99283.41;;;17.94;60.46
24762;BME280;12865;51.934;10.330;2022-07-29T05:41:56;99273.66;;;17.79;61.27
24762;BME280;12865;51.934;10.330;2022-07-29T05:44:42;99271.81;;;17.94;60.45
24762;BME280;12865;51.934;10.330;2022-07-29T05:47:27;99277.56;;;17.91;60.91
24762;BME280;12865;51.934;10.330;2022-07-29T05:50:13;99266.50;;;18.00;59.85
24762;BME280;12865;51.934;10.330;2022-07-29T05:52:59;99269.00;;;18.02;60.33
24762;BME280;12865;51.934;10.330;2022-07-29T05:55:45;99271.25;;;18.13;59.66
24762;BME280;12865;51.934;10.330;2022-07-29T05:58:30;99276.53;;;18.36;58.62
24762;BME280;12865;51.934;10.330;2022-07-29T06:01:16;99266.47;;;18.30;59.12
24762;BME280;12865;51.934;10.330;2022-07-29T06:04:02;99271.69;;;18.17;59.28
24762;BME280;12865;51.934;10.330;2022-07-29T06:06:48;99272.34;;;18.19;59.26
24762;BME280;12865;51.934;10.330;2022-07-29T06:09:34;99280.47;;;18.19;59.83
24762;BME280;12865;51.934;10.330;2022-07-29T06:12:20;99285.75;;;18.27;59.49
24762;BME280;12865;51.934;10.330;2022-07-29T06:15:06;99285.94;;;18.25;59.82
24762;BME280;12865;51.934;10.330;2022-07-29T06:17:52;99278.50;;;18.27;60.33
24762;BME280;12865;51.934;10.330;2022-07-29T06:20:38;99277.53;;;18.50;59.71
24762;BME280;12865;51.934;10.330;2022-07-29T06:23:23;99282.38;;;18.54;59.46
24762;BME280;12865;51.934;10.330;2022-07-29T06:26:09;99278.44;;;18.71;58.63
24762;BME280;12865;51.934;10.330;2022-07-29T06:28:55;99270.63;;;18.76;58.17
24762;BME280;12865;51.934;10.330;2022-07-29T06:31:40;99281.88;;;19.01;57.29
24762;BME280;12865;51.934;10.330;2022-07-29T06:34:26;99273.41;;;19.04;56.07
24762;BME280;12865;51.934;10.330;2022-07-29T06:37:12;99276.19;;;19.11;56.45
24762;BME280;12865;51.934;10.330;2022-07-29T06:39:57;99265.09;;;19.27;55.85
24762;BME280;12865;51.934;10.330;2022-07-29T06:43:01;99272.09;;;19.64;54.74
24762;BME280;12865;51.934;10.330;2022-07-29T06:45:47;99266.22;;;19.88;54.18
24762;BME280;12865;51.934;10.330;2022-07-29T06:48:33;99268.06;;;19.81;53.96
24762;BME280;12865;51.934;10.330;2022-07-29T06:51:20;99267.06;;;19.89;54.07
24762;BME280;12865;51.934;10.330;2022-07-29T06:54:06;99275.66;;;19.99;54.54
24762;BME280;12865;51.934;10.330;2022-07-29T06:56:52;99272.19;;;20.12;53.23
24762;BME280;12865;51.934;10.330;2022-07-29T06:59:37;99273.28;;;20.17;53.88
24762;BME280;12865;51.934;10.330;2022-07-29T07:02:23;99265.69;;;20.41;52.64
24762;BME280;12865;51.934;10.330;2022-07-29T07:05:09;99266.81;;;20.53;52.28
24762;BME280;12865;51.934;10.330;2022-07-29T07:07:55;99262.81;;;20.49;52.35
24762;BME280;12865;51.934;10.330;2022-07-29T07:10:40;99262.13;;;20.81;51.48
24762;BME280;12865;51.934;10.330;2022-07-29T07:13:26;99265.25;;;20.85;51.08
24762;BME280;12865;51.934;10.330;2022-07-29T07:16:13;99265.47;;;20.96;50.43
24762;BME280;12865;51.934;10.330;2022-07-29T07:18:59;99275.88;;;20.86;50.86
24762;BME280;12865;51.934;10.330;2022-07-29T07:21:45;99266.28;;;20.90;51.22
24762;BME280;12865;51.934;10.330;2022-07-29T07:24:31;99273.19;;;20.99;50.50
24762;BME280;12865;51.934;10.330;2022-07-29T07:27:16;99274.88;;;21.07;50.29
24762;BME280;12865;51.934;10.330;2022-07-29T07:30:04;99258.97;;;20.77;51.25
24762;BME280;12865;51.934;10.330;2022-07-29T07:32:54;99258.28;;;20.56;52.45
24762;BME280;12865;51.934;10.330;2022-07-29T07:35:41;99253.50;;;20.64;51.65
24762;BME280;12865;51.934;10.330;2022-07-29T07:38:27;99257.13;;;20.91;51.78
24762;BME280;12865;51.934;10.330;2022-07-29T07:41:12;99260.69;;;20.98;51.58
24762;BME280;12865;51.934;10.330;2022-07-29T07:43:58;99267.63;;;21.21;50.78
24762;BME280;12865;51.934;10.330;2022-07-29T07:46:44;99270.69;;;21.04;50.54
24762;BME280;12865;51.934;10.330;2022-07-29T07:49:30;99272.81;;;21.02;51.48
24762;BME280;12865;51.934;10.330;2022-07-29T07:52:17;99272.03;;;21.35;50.07
24762;BME280;12865;51.934;10.330;2022-07-29T07:55:03;99266.38;;;21.82;48.79
24762;BME280;12865;51.934;10.330;2022-07-29T07:57:49;99264.47;;;22.03;48.50
24762;BME280;12865;51.934;10.330;2022-07-29T08:00:35;99263.47;;;21.77;49.07
24762;BME280;12865;51.934;10.330;2022-07-29T08:03:21;99255.09;;;21.92;48.85
24762;BME280;12865;51.934;10.330;2022-07-29T08:06:06;99260.94;;;22.02;48.92
24762;BME280;12865;51.934;10.330;2022-07-29T08:08:52;99269.09;;;22.02;48.74
24762;BME280;12865;51.934;10.330;2022-07-29T08:11:38;99272.84;;;22.01;48.71
24762;BME280;12865;51.934;10.330;2022-07-29T08:14:24;99263.56;;;22.35;48.27
24762;BME280;12865;51.934;10.330;2022-07-29T08:17:10;99259.75;;;22.49;48.29
24762;BME280;12865;51.934;10.330;2022-07-29T08:19:56;99255.06;;;22.76;47.05
24762;BME280;12865;51.934;10.330;2022-07-29T08:22:42;99260.59;;;22.94;46.86
24762;BME280;12865;51.934;10.330;2022-07-29T08:25:27;99258.00;;;23.06;46.29
24762;BME280;12865;51.934;10.330;2022-07-29T08:28:13;99257.94;;;22.81;47.22
24762;BME280;12865;51.934;10.330;2022-07-29T08:30:59;99257.69;;;22.89;47.26
24762;BME280;12865;51.934;10.330;2022-07-29T08:33:45;99263.84;;;22.65;47.56
24762;BME280;12865;51.934;10.330;2022-07-29T08:36:32;99259.69;;;22.62;48.05
24762;BME280;12865;51.934;10.330;2022-07-29T08:39:18;99261.84;;;22.98;46.99
24762;BME280;12865;51.934;10.330;2022-07-29T08:42:05;99267.19;;;23.12;46.66
24762;BME280;12865;51.934;10.330;2022-07-29T08:44:51;99266.72;;;23.15;46.72
24762;BME280;12865;51.934;10.330;2022-07-29T08:47:38;99260.09;;;23.67;46.19
24762;BME280;12865;51.934;10.330;2022-07-29T08:50:25;99267.34;;;23.73;45.32
24762;BME280;12865;51.934;10.330;2022-07-29T08:53:12;99261.97;;;23.66;45.39
24762;BME280;12865;51.934;10.330;2022-07-29T08:55:58;99258.53;;;24.20;44.20
24762;BME280;12865;51.934;10.330;2022-07-29T08:58:46;99257.28;;;24.16;44.61
24762;BME280;12865;51.934;10.330;2022-07-29T09:01:33;99257.63;;;24.45;43.92
24762;BME280;12865;51.934;10.330;2022-07-29T09:04:20;99257.91;;;24.37;43.94
24762;BME280;12865;51.934;10.330;2022-07-29T09:07:06;99243.59;;;24.59;43.62
24762;BME280;12865;51.934;10.330;2022-07-29T09:09:53;99245.41;;;24.47;44.01
24762;BME280;12865;51.934;10.330;2022-07-29T09:12:39;99249.88;;;24.60;43.89
24762;BME280;12865;51.934;10.330;2022-07-29T09:15:25;99238.91;;;24.48;43.73
24762;BME280;12865;51.934;10.330;2022-07-29T09:18:11;99239.94;;;24.65;43.13
24762;BME280;12865;51.934;10.330;2022-07-29T09:20:56;99236.16;;;24.67;42.98
24762;BME280;12865;51.934;10.330;2022-07-29T09:24:12;99234.50;;;24.65;42.70
24762;BME280;12865;51.934;10.330;2022-07-29T09:26:58;99234.81;;;24.39;43.64
24762;BME280;12865;51.934;10.330;2022-07-29T09:29:44;99232.00;;;24.64;43.05
24762;BME280;12865;51.934;10.330;2022-07-29T09:32:30;99234.06;;;24.80;43.58
24762;BME280;12865;51.934;10.330;2022-07-29T09:35:16;99234.75;;;24.94;43.55
24762;BME280;12865;51.934;10.330;2022-07-29T09:38:12;99230.44;;;25.28;42.20
24762;BME280;12865;51.934;10.330;2022-07-29T09:41:00;99228.97;;;25.02;41.40
24762;BME280;12865;51.934;10.330;2022-07-29T09:43:57;99226.66;;;25.40;41.53
24762;BME280;12865;51.934;10.330;2022-07-29T09:47:01;99221.81;;;25.42;40.78
24762;BME280;12865;51.934;10.330;2022-07-29T09:49:58;99223.47;;;25.55;40.79
24762;BME280;12865;51.934;10.330;2022-07-29T09:52:47;99225.06;;;25.74;39.95
24762;BME280;12865;51.934;10.330;2022-07-29T09:55:32;99220.47;;;25.22;40.48
24762;BME280;12865;51.934;10.330;2022-07-29T09:58:30;99228.16;;;25.25;40.87
24762;BME280;12865;51.934;10.330;2022-07-29T10:01:27;99221.47;;;25.51;40.52
24762;BME280;12865;51.934;10.330;2022-07-29T10:04:14;99216.47;;;25.36;39.64
24762;BME280;12865;51.934;10.330;2022-07-29T10:07:02;99217.75;;;25.22;40.65
24762;BME280;12865;51.934;10.330;2022-07-29T10:09:55;99213.50;;;24.96;40.43
24762;BME280;12865;51.934;10.330;2022-07-29T10:12:53;99207.22;;;24.95;40.53
24762;BME280;12865;51.934;10.330;2022-07-29T10:15:41;99217.03;;;25.15;40.67
24762;BME280;12865;51.934;10.330;2022-07-29T10:18:29;99217.28;;;25.36;39.86
24762;BME280;12865;51.934;10.330;2022-07-29T10:21:15;99216.63;;;25.11;40.39
24762;BME280;12865;51.934;10.330;2022-07-29T10:24:02;99216.63;;;24.81;40.79
24762;BME280;12865;51.934;10.330;2022-07-29T10:26:48;99222.09;;;25.11;40.18
24762;BME280;12865;51.934;10.330;2022-07-29T10:29:34;99222.13;;;24.63;41.43
24762;BME280;12865;51.934;10.330;2022-07-29T10:32:31;99221.19;;;24.87;40.97
24762;BME280;12865;51.934;10.330;2022-07-29T10:38:39;99220.78;;;24.54;41.66
24762;BME280;12865;51.934;10.330;2022-07-29T10:41:39;99212.38;;;24.55;41.32
24762;BME280;12865;51.934;10.330;2022-07-29T10:44:32;99214.00;;;24.45;41.75
24762;BME280;12865;51.934;10.330;2022-07-29T10:47:26;99228.22;;;24.47;42.96
24762;BME280;12865;51.934;10.330;2022-07-29T10:50:12;99213.22;;;24.56;42.31
24762;BME280;12865;51.934;10.330;2022-07-29T10:52:58;99213.34;;;24.61;41.41
24762;BME280;12865;51.934;10.330;2022-07-29T10:55:44;99217.88;;;24.37;41.96
24762;BME280;12865;51.934;10.330;2022-07-29T10:58:32;99216.81;;;24.38;42.59
24762;BME280;12865;51.934;10.330;2022-07-29T11:01:30;99208.38;;;24.58;41.88
24762;BME280;12865;51.934;10.330;2022-07-29T11:07:32;99211.13;;;24.40;42.59
24762;BME280;12865;51.934;10.330;2022-07-29T11:10:20;99210.13;;;24.34;42.58
24762;BME280;12865;51.934;10.330;2022-07-29T11:13:06;99214.13;;;24.50;42.00
24762;BME280;12865;51.934;10.330;2022-07-29T11:15:56;99212.78;;;24.41;41.53
24762;BME280;12865;51.934;10.330;2022-07-29T11:21:57;99208.06;;;24.66;40.80
24762;BME280;12865;51.934;10.330;2022-07-29T11:24:43;99217.69;;;24.50;40.81
24762;BME280;12865;51.934;10.330;2022-07-29T11:27:32;99213.91;;;24.51;41.11
24762;BME280;12865;51.934;10.330;2022-07-29T11:30:48;99227.53;;;24.51;40.71
24762;BME280;12865;51.934;10.330;2022-07-29T11:33:34;99220.56;;;24.55;40.29
24762;BME280;12865;51.934;10.330;2022-07-29T11:36:20;99213.03;;;24.69;39.33
24762;BME280;12865;51.934;10.330;2022-07-29T11:39:25;99223.75;;;24.52;39.95
24762;BME280;12865;51.934;10.330;2022-07-29T11:45:20;99223.06;;;24.57;40.26
24762;BME280;12865;51.934;10.330;2022-07-29T11:48:07;99215.88;;;24.74;40.00
24762;BME280;12865;51.934;10.330;2022-07-29T11:50:53;99210.44;;;24.74;39.52
24762;BME280;12865;51.934;10.330;2022-07-29T11:53:39;99220.59;;;24.67;39.73
24762;BME280;12865;51.934;10.330;2022-07-29T11:56:25;99220.28;;;24.75;39.40
24762;BME280;12865;51.934;10.330;2022-07-29T11:59:15;99222.44;;;24.73;39.27
24762;BME280;12865;51.934;10.330;2022-07-29T12:02:00;99221.72;;;24.78;39.48
24762;BME280;12865;51.934;10.330;2022-07-29T12:04:55;99215.72;;;24.87;39.77
24762;BME280;12865;51.934;10.330;2022-07-29T12:07:42;99217.72;;;24.80;39.78
24762;BME280;12865;51.934;10.330;2022-07-29T12:10:30;99211.38;;;24.68;40.68
24762;BME280;12865;51.934;10.330;2022-07-29T12:13:20;99210.72;;;24.84;40.18
24762;BME280;12865;51.934;10.330;2022-07-29T12:16:06;99215.78;;;24.99;39.72
24762;BME280;12865;51.934;10.330;2022-07-29T12:18:59;99211.28;;;25.04;39.41
24762;BME280;12865;51.934;10.330;2022-07-29T12:21:52;99209.41;;;25.17;39.96
24762;BME280;12865;51.934;10.330;2022-07-29T12:24:44;99209.69;;;25.27;39.73
24762;BME280;12865;51.934;10.330;2022-07-29T12:27:30;99202.22;;;25.34;39.62
24762;BME280;12865;51.934;10.330;2022-07-29T12:30:16;99203.03;;;25.46;39.31
24762;BME280;12865;51.934;10.330;2022-07-29T12:33:10;99203.66;;;25.48;39.17
24762;BME280;12865;51.934;10.330;2022-07-29T12:36:00;99204.72;;;25.47;38.74
24762;BME280;12865;51.934;10.330;2022-07-29T12:38:47;99199.13;;;25.42;38.95
24762;BME280;12865;51.934;10.330;2022-07-29T12:41:33;99204.09;;;25.22;40.53
24762;BME280;12865;51.934;10.330;2022-07-29T12:44:18;99205.06;;;25.27;39.99
24762;BME280;12865;51.934;10.330;2022-07-29T12:47:04;99204.03;;;25.63;38.55
24762;BME280;12865;51.934;10.330;2022-07-29T12:49:50;99205.81;;;25.69;38.57
24762;BME280;12865;51.934;10.330;2022-07-29T12:52:36;99198.81;;;25.62;38.24
24762;BME280;12865;51.934;10.330;2022-07-29T12:55:41;99200.53;;;25.44;39.67
24762;BME280;12865;51.934;10.330;2022-07-29T12:58:37;99190.47;;;25.57;40.06
24762;BME280;12865;51.934;10.330;2022-07-29T13:01:23;99191.66;;;25.72;38.12
24762;BME280;12865;51.934;10.330;2022-07-29T13:04:09;99195.72;;;25.58;38.63
24762;BME280;12865;51.934;10.330;2022-07-29T13:07:03;99194.03;;;25.57;38.71
24762;BME280;12865;51.934;10.330;2022-07-29T13:09:51;99196.53;;;25.47;39.05
24762;BME280;12865;51.934;10.330;2022-07-29T13:12:38;99194.41;;;25.49;38.95
24762;BME280;12865;51.934;10.330;2022-07-29T13:15:23;99193.91;;;25.29;39.93
24762;BME280;12865;51.934;10.330;2022-07-29T13:21:15;99192.50;;;25.50;39.54
24762;BME280;12865;51.934;10.330;2022-07-29T13:24:01;99188.84;;;25.67;38.96
24762;BME280;12865;51.934;10.330;2022-07-29T13:26:47;99187.31;;;25.71;37.99
24762;BME280;12865;51.934;10.330;2022-07-29T13:29:32;99187.53;;;25.70;38.34
24762;BME280;12865;51.934;10.330;2022-07-29T13:32:20;99180.28;;;25.75;38.54
24762;BME280;12865;51.934;10.330;2022-07-29T13:35:07;99170.44;;;25.86;38.27
24762;BME280;12865;51.934;10.330;2022-07-29T13:37:53;99173.22;;;26.03;37.41
24762;BME280;12865;51.934;10.330;2022-07-29T13:40:39;99169.53;;;26.09;36.64
24762;BME280;12865;51.934;10.330;2022-07-29T13:43:26;99168.50;;;25.87;36.77
24762;BME280;12865;51.934;10.330;2022-07-29T13:46:11;99172.63;;;26.01;36.65
24762;BME280;12865;51.934;10.330;2022-07-29T13:48:57;99172.53;;;25.96;36.42
24762;BME280;12865;51.934;10.330;2022-07-29T13:51:43;99161.13;;;25.99;37.15
24762;BME280;12865;51.934;10.330;2022-07-29T13:54:28;99169.97;;;26.29;36.21
24762;BME280;12865;51.934;10.330;2022-07-29T13:57:14;99159.97;;;26.23;36.27
24762;BME280;12865;51.934;10.330;2022-07-29T14:00:00;99164.09;;;25.97;35.29
24762;BME280;12865;51.934;10.330;2022-07-29T14:02:46;99167.41;;;26.11;35.03
24762;BME280;12865;51.934;10.330;2022-07-29T14:05:32;99156.38;;;26.46;34.61
24762;BME280;12865;51.934;10.330;2022-07-29T14:08:17;99159.41;;;26.21;35.54
24762;BME280;12865;51.934;10.330;2022-07-29T14:11:03;99150.72;;;26.24;34.78
24762;BME280;12865;51.934;10.330;2022-07-29T14:13:49;99158.75;;;26.42;34.50
24762;BME280;12865;51.934;10.330;2022-07-29T14:16:34;99148.03;;;26.52;33.93
24762;BME280;12865;51.934;10.330;2022-07-29T14:19:20;99149.38;;;26.67;33.90
24762;BME280;12865;51.934;10.330;2022-07-29T14:22:07;99143.47;;;26.58;34.07
24762;BME280;12865;51.934;10.330;2022-07-29T14:24:53;99142.34;;;26.71;33.85
24762;BME280;12865;51.934;10.330;2022-07-29T14:27:39;99149.22;;;26.73;34.25
24762;BME280;12865;51.934;10.330;2022-07-29T14:30:25;99141.78;;;26.85;33.77
24762;BME280;12865;51.934;10.330;2022-07-29T14:33:10;99142.59;;;26.86;33.61
24762;BME280;12865;51.934;10.330;2022-07-29T14:35:56;99143.75;;;26.73;34.84
24762;BME280;12865;51.934;10.330;2022-07-29T14:38:42;99140.94;;;26.96;34.75
24762;BME280;12865;51.934;10.330;2022-07-29T14:41:28;99139.03;;;26.97;34.52
24762;BME280;12865;51.934;10.330;2022-07-29T14:44:13;99143.16;;;26.54;34.98
24762;BME280;12865;51.934;10.330;2022-07-29T14:46:59;99146.06;;;26.36;35.21
24762;BME280;12865;51.934;10.330;2022-07-29T14:49:45;99140.59;;;26.36;35.56
24762;BME280;12865;51.934;10.330;2022-07-29T14:52:31;99139.44;;;26.61;35.43
24762;BME280;12865;51.934;10.330;2022-07-29T14:55:17;99141.66;;;26.92;35.05
24762;BME280;12865;51.934;10.330;2022-07-29T14:58:03;99139.19;;;26.79;35.34
24762;BME280;12865;51.934;10.330;2022-07-29T15:00:48;99146.41;;;26.96;34.85
24762;BME280;12865;51.934;10.330;2022-07-29T15:03:34;99144.34;;;27.04;33.86